Time;durP1;ratioP1;P1;durP2;ratioP2;P2;SDS_P1;SDS_P2;PMS_P1;PMS_P2;Temp;Humidity;BMP_temperature;BMP_pressure;BME280_temperature;BME280_humidity;BME280_pressure;Samples;Min_cycle;Max_cycle;Signal;HPM_P1;HPM_P2
2024/04/22 00:00:08;;;;;;;3.37;1.97;;;;;;;;;;5380581;26;20000;-81
2024/04/22 00:02:34;;;;;;;3.67;2.20;;;;;;;;;;5372785;26;20256;-87
2024/04/22 00:05:00;;;;;;;3.23;2.30;;;;;;;;;;5351417;26;20226;-85
2024/04/22 00:07:25;;;;;;;5.73;2.43;;;;;;;;;;5371198;26;20008;-85
2024/04/22 00:09:51;;;;;;;4.40;2.40;;;;;;;;;;5381451;26;20059;-88
2024/04/22 00:12:17;;;;;;;6.03;2.63;;;;;;;;;;5341064;26;20015;-82
2024/04/22 00:14:43;;;;;;;3.53;2.30;;;;;;;;;;5371118;26;20000;-85
2024/04/22 00:17:09;;;;;;;5.17;2.60;;;;;;;;;;5380424;26;20043;-85
2024/04/22 00:19:35;;;;;;;4.03;2.00;;;;;;;;;;5382279;26;20231;-81
2024/04/22 00:22:01;;;;;;;4.50;2.30;;;;;;;;;;5373515;26;20263;-88
2024/04/22 00:24:27;;;;;;;3.47;2.17;;;;;;;;;;5381738;26;20230;-83
2024/04/22 00:26:53;;;;;;;5.00;2.73;;;;;;;;;;5379670;26;20016;-85
2024/04/22 00:29:19;;;;;;;5.20;2.37;;;;;;;;;;5344523;26;20332;-85
2024/04/22 00:31:45;;;;;;;3.63;2.57;;;;;;;;;;5348618;26;20028;-81
2024/04/22 00:34:11;;;;;;;9.17;3.17;;;;;;;;;;5373290;26;20077;-85
2024/04/22 00:36:37;;;;;;;6.03;2.57;;;;;;;;;;5340748;26;20254;-86
2024/04/22 00:39:03;;;;;;;5.63;2.67;;;;;;;;;;5368755;26;20004;-81
2024/04/22 00:41:31;;;;;;;4.90;2.60;;;;;;;;;;5380933;26;20023;-85
2024/04/22 00:43:57;;;;;;;4.07;2.57;;;;;;;;;;5344075;26;20041;-85
2024/04/22 00:46:23;;;;;;;3.73;2.27;;;;;;;;;;5379583;26;20253;-88
2024/04/22 00:48:49;;;;;;;5.30;2.33;;;;;;;;;;5370631;26;20678;-86
2024/04/22 00:51:16;;;;;;;8.13;2.20;;;;;;;;;;5380571;26;20011;-83
2024/04/22 00:53:42;;;;;;;4.40;2.30;;;;;;;;;;5409221;26;20250;-88
2024/04/22 00:56:08;;;;;;;3.40;2.10;;;;;;;;;;5348827;26;20330;-86
2024/04/22 00:58:34;;;;;;;5.13;2.10;;;;;;;;;;5378886;26;20004;-84
2024/04/22 01:01:00;;;;;;;5.47;2.03;;;;;;;;;;5340135;26;22898;-89
2024/04/22 01:03:26;;;;;;;3.63;1.90;;;;;;;;;;5378388;26;20223;-89
2024/04/22 01:05:55;;;;;;;4.93;2.20;;;;;;;;;;5380464;26;20306;-84
2024/04/22 01:08:21;;;;;;;3.83;2.30;;;;;;;;;;5377122;26;20286;-90
2024/04/22 01:10:47;;;;;;;3.70;2.27;;;;;;;;;;5343534;26;20239;-82
2024/04/22 01:13:13;;;;;;;2.73;1.90;;;;;;;;;;5379381;26;20008;-86
2024/04/22 01:15:41;;;;;;;6.10;2.60;;;;;;;;;;5377400;26;20016;-88
2024/04/22 01:18:07;;;;;;;5.03;2.63;;;;;;;;;;5379401;26;20554;-82
2024/04/22 01:20:33;;;;;;;4.60;2.77;;;;;;;;;;5376047;26;20305;-85
2024/04/22 01:22:59;;;;;;;6.93;2.07;;;;;;;;;;5378418;26;20063;-82
2024/04/22 01:25:28;;;;;;;3.93;2.00;;;;;;;;;;5380142;26;20242;-85
2024/04/22 01:27:54;;;;;;;4.50;2.40;;;;;;;;;;5379682;26;20012;-86
2024/04/22 01:30:20;;;;;;;4.20;2.13;;;;;;;;;;5370630;26;20325;-82
2024/04/22 01:32:46;;;;;;;4.20;2.13;;;;;;;;;;5378326;26;20008;-88
2024/04/22 01:35:14;;;;;;;4.67;2.63;;;;;;;;;;5372285;26;20016;-82
2024/04/22 01:37:40;;;;;;;5.83;2.87;;;;;;;;;;5342807;26;19996;-90
2024/04/22 01:40:09;;;;;;;5.20;2.20;;;;;;;;;;5342338;26;21060;-87
2024/04/22 01:42:35;;;;;;;5.57;2.80;;;;;;;;;;5374072;26;20473;-86
2024/04/22 01:45:01;;;;;;;5.40;2.70;;;;;;;;;;5377802;26;20239;-86
2024/04/22 01:47:27;;;;;;;4.93;2.70;;;;;;;;;;5377574;26;20119;-84
2024/04/22 01:49:53;;;;;;;5.00;2.43;;;;;;;;;;5377388;26;20012;-89
2024/04/22 01:52:19;;;;;;;3.53;2.37;;;;;;;;;;5380392;26;20319;-83
2024/04/22 01:54:47;;;;;;;6.47;2.97;;;;;;;;;;5380091;26;20016;-82
2024/04/22 01:57:13;;;;;;;7.07;3.87;;;;;;;;;;5368898;26;20000;-88
2024/04/22 01:59:39;;;;;;;5.83;2.60;;;;;;;;;;5374159;26;20242;-85
2024/04/22 02:02:05;;;;;;;6.20;3.20;;;;;;;;;;5369223;26;20242;-84
2024/04/22 02:04:31;;;;;;;6.33;2.83;;;;;;;;;;5378501;26;20293;-85
2024/04/22 02:06:57;;;;;;;5.53;2.40;;;;;;;;;;5343199;26;20725;-87
2024/04/22 02:09:23;;;;;;;3.77;2.13;;;;;;;;;;5371338;26;20107;-86
2024/04/22 02:11:50;;;;;;;4.33;2.30;;;;;;;;;;5369858;26;20297;-82
2024/04/22 02:14:16;;;;;;;5.80;3.10;;;;;;;;;;5379956;26;20234;-82
2024/04/22 02:16:42;;;;;;;4.43;2.70;;;;;;;;;;5377980;26;20274;-86
2024/04/22 02:19:08;;;;;;;5.93;3.00;;;;;;;;;;5380761;26;20007;-86
2024/04/22 02:21:34;;;;;;;4.73;2.43;;;;;;;;;;5408074;26;20007;-85
2024/04/22 02:24:00;;;;;;;3.83;2.93;;;;;;;;;;5342893;26;20004;-87
2024/04/22 02:26:26;;;;;;;7.40;3.57;;;;;;;;;;5371445;26;20000;-81
2024/04/22 02:28:53;;;;;;;6.40;2.50;;;;;;;;;;5372851;26;20008;-88
2024/04/22 02:31:22;;;;;;;5.33;3.20;;;;;;;;;;5343603;26;20019;-80
2024/04/22 02:33:48;;;;;;;4.37;2.80;;;;;;;;;;5345579;26;20281;-86
2024/04/22 02:36:14;;;;;;;4.23;2.87;;;;;;;;;;5383096;26;20250;-82
2024/04/22 02:38:40;;;;;;;4.80;2.77;;;;;;;;;;5381336;26;20341;-85
2024/04/22 02:41:06;;;;;;;4.57;3.40;;;;;;;;;;5346409;26;20238;-86
2024/04/22 02:43:35;;;;;;;7.77;3.50;;;;;;;;;;5374397;26;20420;-84
2024/04/22 02:46:01;;;;;;;7.70;3.33;;;;;;;;;;5346435;26;20137;-84
2024/04/22 02:48:27;;;;;;;6.37;3.10;;;;;;;;;;5382640;26;20866;-81
2024/04/22 02:50:53;;;;;;;5.67;3.10;;;;;;;;;;5379173;26;20008;-85
2024/04/22 02:53:21;;;;;;;6.77;3.33;;;;;;;;;;5376719;26;20066;-85
2024/04/22 02:55:47;;;;;;;5.80;3.07;;;;;;;;;;5375996;26;20015;-87
2024/04/22 02:58:13;;;;;;;5.83;3.23;;;;;;;;;;5346818;26;20226;-88
2024/04/22 03:00:39;;;;;;;6.43;2.93;;;;;;;;;;5365168;26;20000;-85
2024/04/22 03:03:05;;;;;;;5.40;3.30;;;;;;;;;;5377862;26;19997;-87
2024/04/22 03:05:31;;;;;;;7.40;3.47;;;;;;;;;;5376983;26;20000;-87
2024/04/22 03:07:57;;;;;;;5.23;3.50;;;;;;;;;;5379975;26;20258;-85
2024/04/22 03:10:25;;;;;;;8.90;4.57;;;;;;;;;;5343311;26;20411;-86
2024/04/22 03:12:51;;;;;;;6.07;3.63;;;;;;;;;;5348308;26;20012;-83
2024/04/22 03:15:17;;;;;;;5.07;3.17;;;;;;;;;;5380044;26;20278;-85
2024/04/22 03:17:43;;;;;;;5.77;3.63;;;;;;;;;;5380593;26;20079;-84
2024/04/22 03:20:12;;;;;;;6.67;3.40;;;;;;;;;;5379106;26;20653;-85
2024/04/22 03:22:39;;;;;;;8.07;4.17;;;;;;;;;;5378939;26;20011;-87
2024/04/22 03:25:06;;;;;;;6.83;4.07;;;;;;;;;;5378025;26;19996;-88
2024/04/22 03:27:32;;;;;;;8.00;4.60;;;;;;;;;;5381916;26;20020;-87
2024/04/22 03:29:58;;;;;;;6.77;3.90;;;;;;;;;;5382774;26;20007;-85
2024/04/22 03:32:24;;;;;;;6.97;3.83;;;;;;;;;;5346884;26;20822;-87
2024/04/22 03:34:50;;;;;;;7.43;3.83;;;;;;;;;;5348268;26;20000;-87
2024/04/22 03:37:16;;;;;;;6.67;4.40;;;;;;;;;;5373063;26;20023;-85
2024/04/22 03:39:42;;;;;;;8.00;4.20;;;;;;;;;;5381693;26;20448;-84
2024/04/22 03:42:09;;;;;;;8.20;3.87;;;;;;;;;;5354058;26;20007;-82
2024/04/22 03:44:35;;;;;;;8.10;4.10;;;;;;;;;;5386639;26;20046;-81
2024/04/22 03:49:54;;;;;;;10.23;4.50;;;;;;;;;;5382186;26;20062;-86
2024/04/22 03:52:20;;;;;;;5.40;3.47;;;;;;;;;;5373194;26;20004;-84
2024/04/22 03:54:46;;;;;;;11.20;4.43;;;;;;;;;;5388239;26;20241;-85
2024/04/22 03:57:11;;;;;;;5.97;3.67;;;;;;;;;;5383480;26;20050;-84
2024/04/22 03:59:41;;;;;;;6.33;3.90;;;;;;;;;;5376802;26;20008;-86
2024/04/22 04:02:07;;;;;;;5.70;3.80;;;;;;;;;;5384097;26;20016;-87
2024/04/22 04:04:33;;;;;;;6.40;4.03;;;;;;;;;;5384426;26;20107;-79
2024/04/22 04:06:59;;;;;;;5.73;3.63;;;;;;;;;;5384504;26;20000;-85
2024/04/22 04:09:25;;;;;;;4.37;3.07;;;;;;;;;;5382497;26;20074;-87
2024/04/22 04:11:52;;;;;;;6.77;3.80;;;;;;;;;;5349240;26;21445;-86
2024/04/22 04:14:18;;;;;;;6.47;3.83;;;;;;;;;;5385114;26;20000;-84
2024/04/22 04:16:44;;;;;;;6.70;4.07;;;;;;;;;;5390740;26;20068;-83
2024/04/22 04:19:10;;;;;;;8.60;5.07;;;;;;;;;;5382125;26;20043;-85
2024/04/22 04:21:36;;;;;;;10.53;5.27;;;;;;;;;;5353009;26;20230;-82
2024/04/22 04:24:02;;;;;;;8.07;4.63;;;;;;;;;;5387110;26;19996;-85
2024/04/22 04:26:28;;;;;;;8.33;4.90;;;;;;;;;;5391782;26;20032;-80
2024/04/22 04:28:54;;;;;;;8.23;4.67;;;;;;;;;;5378213;26;20004;-86
2024/04/22 04:31:20;;;;;;;8.27;4.87;;;;;;;;;;5348954;26;20317;-84
2024/04/22 04:33:46;;;;;;;8.77;5.47;;;;;;;;;;5353193;26;20044;-81
2024/04/22 04:36:12;;;;;;;9.77;5.27;;;;;;;;;;5355437;26;20015;-87
2024/04/22 04:38:38;;;;;;;9.43;6.03;;;;;;;;;;5351680;26;20004;-86
2024/04/22 04:41:04;;;;;;;9.27;5.30;;;;;;;;;;5389525;26;20000;-83
2024/04/22 04:43:31;;;;;;;13.80;5.50;;;;;;;;;;5360352;26;20000;-86
2024/04/22 04:45:57;;;;;;;9.30;5.97;;;;;;;;;;5389067;26;20046;-85
2024/04/22 04:48:24;;;;;;;9.43;5.23;;;;;;;;;;5390710;26;20340;-83
2024/04/22 04:50:50;;;;;;;10.97;6.17;;;;;;;;;;5392585;26;20004;-80
2024/04/22 04:53:19;;;;;;;9.43;5.17;;;;;;;;;;5391831;26;20000;-86
2024/04/22 04:55:45;;;;;;;9.83;5.30;;;;;;;;;;5390302;26;20014;-85
2024/04/22 04:58:14;;;;;;;9.67;5.00;;;;;;;;;;5391913;26;20009;-83
2024/04/22 05:00:40;;;;;;;7.90;5.03;;;;;;;;;;5391187;26;20197;-86
2024/04/22 05:03:06;;;;;;;9.10;5.40;;;;;;;;;;5390357;26;19996;-82
2024/04/22 05:05:32;;;;;;;9.80;5.30;;;;;;;;;;5391346;26;20015;-84
2024/04/22 05:07:59;;;;;;;9.30;5.23;;;;;;;;;;5390867;26;20004;-86
2024/04/22 05:10:25;;;;;;;10.60;5.90;;;;;;;;;;5357035;26;20018;-83
2024/04/22 05:12:51;;;;;;;10.50;5.00;;;;;;;;;;5389253;26;19996;-86
2024/04/22 05:15:18;;;;;;;9.83;5.53;;;;;;;;;;5386014;26;20014;-83
2024/04/22 05:17:44;;;;;;;9.57;6.17;;;;;;;;;;5385065;26;20007;-84
2024/04/22 05:20:10;;;;;;;11.77;6.27;;;;;;;;;;5347026;26;22475;-85
2024/04/22 05:22:36;;;;;;;12.97;6.47;;;;;;;;;;5350684;26;20005;-88
2024/04/22 05:25:04;;;;;;;10.40;5.40;;;;;;;;;;5411815;26;20004;-83
2024/04/22 05:27:35;;;;;;;10.23;5.40;;;;;;;;;;5354437;26;19996;-86
2024/04/22 05:30:01;;;;;;;11.00;5.73;;;;;;;;;;5375721;26;20004;-84
2024/04/22 05:32:27;;;;;;;10.10;6.07;;;;;;;;;;5385371;26;20746;-84
2024/04/22 05:37:38;;;;;;;10.37;5.30;;;;;;;;;;5385171;26;20011;-85
2024/04/22 05:40:06;;;;;;;10.67;6.23;;;;;;;;;;5374202;26;20250;-85
2024/04/22 05:42:32;;;;;;;9.37;5.70;;;;;;;;;;5382462;26;20004;-82
2024/04/22 05:44:59;;;;;;;11.00;5.70;;;;;;;;;;5382627;26;20011;-82
2024/04/22 05:47:25;;;;;;;10.60;5.60;;;;;;;;;;5388858;26;20387;-83
2024/04/22 05:49:53;;;;;;;10.70;5.70;;;;;;;;;;5377097;26;20011;-76
2024/04/22 05:52:22;;;;;;;10.37;5.33;;;;;;;;;;5396813;26;19992;-75
2024/04/22 05:54:48;;;;;;;9.93;5.60;;;;;;;;;;5387234;26;19988;-76
2024/04/22 05:57:18;;;;;;;12.73;5.30;;;;;;;;;;5398487;26;20027;-77
2024/04/22 05:59:44;;;;;;;10.33;5.97;;;;;;;;;;5396879;26;19993;-76
2024/04/22 06:02:10;;;;;;;9.53;5.60;;;;;;;;;;5428866;26;20017;-76
2024/04/22 06:04:38;;;;;;;9.40;5.27;;;;;;;;;;5364170;26;20008;-75
2024/04/22 06:07:05;;;;;;;10.23;5.20;;;;;;;;;;5402093;26;19988;-75
2024/04/22 06:09:30;;;;;;;9.53;5.17;;;;;;;;;;5403079;26;19993;-75
2024/04/22 06:11:56;;;;;;;10.63;5.73;;;;;;;;;;5401691;26;20003;-77
2024/04/22 06:14:23;;;;;;;10.77;5.27;;;;;;;;;;5401906;26;20040;-76
2024/04/22 06:16:51;;;;;;;9.80;5.67;;;;;;;;;;5399399;26;20012;-75
2024/04/22 06:19:17;;;;;;;11.77;5.30;;;;;;;;;;5400172;26;19996;-76
2024/04/22 06:21:43;;;;;;;9.17;5.20;;;;;;;;;;5397038;26;20042;-77
2024/04/22 06:24:09;;;;;;;10.67;5.43;;;;;;;;;;5400848;26;19988;-75
2024/04/22 06:26:35;;;;;;;8.53;5.33;;;;;;;;;;5393614;26;20609;-76
2024/04/22 06:29:01;;;;;;;8.87;5.23;;;;;;;;;;5398247;26;20011;-76
2024/04/22 06:31:26;;;;;;;9.77;5.63;;;;;;;;;;5402381;26;20046;-75
2024/04/22 06:33:52;;;;;;;9.63;5.03;;;;;;;;;;5368968;26;20024;-76
2024/04/22 06:36:18;;;;;;;8.40;5.23;;;;;;;;;;5397239;26;20198;-77
2024/04/22 06:38:44;;;;;;;9.97;4.97;;;;;;;;;;5397121;26;19996;-75
2024/04/22 06:41:10;;;;;;;10.30;5.57;;;;;;;;;;5400211;26;20000;-76
2024/04/22 06:43:39;;;;;;;8.83;5.03;;;;;;;;;;5400060;26;20004;-78
2024/04/22 06:46:05;;;;;;;9.67;5.90;;;;;;;;;;5379718;26;20016;-74
2024/04/22 06:48:31;;;;;;;10.23;5.43;;;;;;;;;;5398626;26;20116;-77
2024/04/22 06:50:58;;;;;;;8.53;5.30;;;;;;;;;;5360674;26;20003;-75
2024/04/22 06:53:25;;;;;;;8.27;5.30;;;;;;;;;;5394015;26;20090;-76
2024/04/22 06:55:51;;;;;;;10.87;5.43;;;;;;;;;;5356042;26;20004;-77
2024/04/22 06:58:17;;;;;;;9.60;5.03;;;;;;;;;;5384491;26;19999;-75
2024/04/22 07:00:43;;;;;;;8.50;5.17;;;;;;;;;;5352509;26;20489;-78
2024/04/22 07:03:14;;;;;;;8.77;5.43;;;;;;;;;;5386024;26;20016;-77
2024/04/22 07:05:40;;;;;;;16.77;6.50;;;;;;;;;;5396680;26;19992;-75
2024/04/22 07:08:09;;;;;;;8.53;5.23;;;;;;;;;;5386950;26;19999;-76
2024/04/22 07:10:35;;;;;;;9.60;5.17;;;;;;;;;;5394666;26;20003;-77
2024/04/22 07:13:03;;;;;;;8.90;5.63;;;;;;;;;;5400745;26;20009;-77
2024/04/22 07:15:29;;;;;;;9.00;4.97;;;;;;;;;;5396409;26;19992;-76
2024/04/22 07:17:57;;;;;;;9.50;5.33;;;;;;;;;;5393001;26;20020;-77
2024/04/22 07:20:23;;;;;;;9.13;5.10;;;;;;;;;;5370902;26;19984;-75
2024/04/22 07:22:49;;;;;;;10.17;5.10;;;;;;;;;;5400680;26;20042;-77
2024/04/22 07:25:17;;;;;;;15.70;5.20;;;;;;;;;;5366393;26;20004;-76
2024/04/22 07:27:43;;;;;;;9.17;5.33;;;;;;;;;;5402982;26;20004;-75
2024/04/22 07:30:10;;;;;;;8.30;4.90;;;;;;;;;;5381664;26;20012;-74
2024/04/22 07:32:36;;;;;;;8.10;5.27;;;;;;;;;;5396749;26;20012;-77
2024/04/22 07:35:02;;;;;;;9.07;5.20;;;;;;;;;;5393056;26;19993;-75
2024/04/22 07:37:28;;;;;;;8.63;4.37;;;;;;;;;;5362749;26;20000;-79
2024/04/22 07:39:56;;;;;;;8.63;4.30;;;;;;;;;;5359435;26;20000;-75
2024/04/22 07:42:22;;;;;;;6.90;3.77;;;;;;;;;;5397801;26;20015;-75
2024/04/22 07:44:49;;;;;;;7.97;4.53;;;;;;;;;;5387788;26;19992;-76
2024/04/22 07:47:15;;;;;;;8.40;4.73;;;;;;;;;;5356557;26;20015;-76
2024/04/22 07:49:41;;;;;;;7.47;4.13;;;;;;;;;;5363394;26;19993;-75
2024/04/22 07:52:07;;;;;;;7.30;3.73;;;;;;;;;;5401416;26;19988;-75
2024/04/22 07:54:33;;;;;;;7.73;4.30;;;;;;;;;;5402327;26;19992;-76
2024/04/22 07:57:11;;;;;;;7.03;4.30;;;;;;;;;;5402042;26;19985;-77
2024/04/22 08:00:08;;;;;;;6.50;4.43;;;;;;;;;;5402822;26;20006;-81
2024/04/22 08:05:46;;;;;;;10.10;4.50;;;;;;;;;;5381441;26;20004;-75
2024/04/22 08:08:26;;;;;;;5.33;3.03;;;;;;;;;;5360858;26;20009;-75
2024/04/22 08:11:01;;;;;;;6.07;3.67;;;;;;;;;;5400503;26;19992;-76
2024/04/22 08:13:30;;;;;;;6.87;3.97;;;;;;;;;;5403077;26;20013;-78
2024/04/22 08:15:58;;;;;;;7.00;4.13;;;;;;;;;;5366719;26;19988;-76
2024/04/22 08:18:27;;;;;;;5.63;3.30;;;;;;;;;;5396662;26;20000;-76
2024/04/22 08:20:56;;;;;;;5.93;3.60;;;;;;;;;;5387316;26;20016;-79
2024/04/22 08:23:26;;;;;;;5.50;3.07;;;;;;;;;;5360193;26;20023;-76
2024/04/22 08:25:53;;;;;;;4.50;2.83;;;;;;;;;;5402565;26;19988;-75
2024/04/22 08:28:23;;;;;;;5.53;2.90;;;;;;;;;;5398773;26;19993;-76
2024/04/22 08:30:49;;;;;;;4.90;2.87;;;;;;;;;;5402279;26;20056;-79
2024/04/22 08:33:16;;;;;;;5.03;2.70;;;;;;;;;;5399818;26;20279;-77
2024/04/22 08:35:48;;;;;;;5.20;2.53;;;;;;;;;;5403272;26;20015;-76
2024/04/22 08:38:16;;;;;;;5.10;2.60;;;;;;;;;;5395792;26;19992;-76
2024/04/22 08:40:43;;;;;;;5.10;3.07;;;;;;;;;;5393493;26;19997;-79
2024/04/22 08:43:13;;;;;;;5.53;3.33;;;;;;;;;;5394806;26;20045;-77
2024/04/22 08:45:46;;;;;;;5.37;2.80;;;;;;;;;;5401204;26;20022;-78
2024/04/22 08:48:15;;;;;;;4.50;2.63;;;;;;;;;;5401757;26;20003;-77
2024/04/22 08:50:41;;;;;;;4.37;2.90;;;;;;;;;;5371906;26;19993;-76
2024/04/22 08:53:13;;;;;;;5.27;2.27;;;;;;;;;;5401153;26;20035;-76
2024/04/22 08:55:39;;;;;;;4.37;2.50;;;;;;;;;;5401745;26;19988;-77
2024/04/22 08:58:08;;;;;;;3.93;2.30;;;;;;;;;;5400053;26;20013;-75
2024/04/22 09:00:34;;;;;;;4.40;2.37;;;;;;;;;;5392269;26;19992;-76
2024/04/22 09:03:00;;;;;;;6.23;3.40;;;;;;;;;;5396852;26;20007;-75
2024/04/22 09:05:26;;;;;;;5.27;3.03;;;;;;;;;;5370277;26;19997;-74
2024/04/22 09:07:55;;;;;;;3.40;2.13;;;;;;;;;;5401714;26;20001;-76
2024/04/22 09:10:24;;;;;;;4.77;2.30;;;;;;;;;;5401480;26;19999;-75
2024/04/22 09:12:59;;;;;;;4.53;1.83;;;;;;;;;;5368026;26;20004;-76
2024/04/22 09:15:28;;;;;;;3.97;1.90;;;;;;;;;;5367050;26;20012;-76
2024/04/22 09:17:54;;;;;;;3.87;1.60;;;;;;;;;;5393769;26;19988;-75
2024/04/22 09:20:20;;;;;;;2.33;1.50;;;;;;;;;;5400334;26;20005;-76
2024/04/22 09:22:56;;;;;;;4.43;1.83;;;;;;;;;;5399882;26;19995;-74
2024/04/22 09:25:23;;;;;;;2.53;1.47;;;;;;;;;;5426804;26;20011;-76
2024/04/22 09:27:52;;;;;;;2.40;1.53;;;;;;;;;;5364549;26;20049;-75
2024/04/22 09:30:20;;;;;;;3.00;1.47;;;;;;;;;;5391077;26;20054;-77
2024/04/22 09:32:47;;;;;;;2.67;1.60;;;;;;;;;;5393535;26;20028;-76
2024/04/22 09:35:24;;;;;;;3.27;1.90;;;;;;;;;;5391398;26;19992;-76
2024/04/22 09:37:51;;;;;;;2.50;1.20;;;;;;;;;;5397110;26;20000;-77
2024/04/22 09:40:17;;;;;;;1.87;1.10;;;;;;;;;;5398127;26;21121;-75
2024/04/22 09:42:44;;;;;;;2.10;1.37;;;;;;;;;;5398940;26;19993;-76
2024/04/22 09:45:11;;;;;;;1.37;0.97;;;;;;;;;;5368447;26;20007;-78
2024/04/22 09:47:39;;;;;;;1.50;0.80;;;;;;;;;;5359980;26;19997;-79
2024/04/22 09:50:05;;;;;;;1.67;0.80;;;;;;;;;;5368872;26;20011;-77
2024/04/22 09:52:35;;;;;;;0.83;0.73;;;;;;;;;;5334869;26;20766;-79
2024/04/22 09:55:01;;;;;;;2.17;1.37;;;;;;;;;;5372888;26;19992;-78
2024/04/22 09:57:27;;;;;;;1.70;0.97;;;;;;;;;;5372491;26;20065;-78
2024/04/22 09:59:54;;;;;;;1.43;0.80;;;;;;;;;;5336150;26;19999;-78
2024/04/22 10:02:20;;;;;;;2.57;1.07;;;;;;;;;;5366022;26;20007;-76
2024/04/22 10:04:46;;;;;;;2.03;0.77;;;;;;;;;;5368100;26;20008;-77
2024/04/22 10:07:13;;;;;;;1.97;1.03;;;;;;;;;;5336830;26;20791;-80
2024/04/22 10:09:39;;;;;;;1.47;1.00;;;;;;;;;;5375038;26;19996;-79
2024/04/22 10:12:08;;;;;;;1.33;0.70;;;;;;;;;;5377541;26;19996;-78
2024/04/22 10:14:34;;;;;;;1.37;0.70;;;;;;;;;;5375099;26;20008;-79
2024/04/22 10:17:00;;;;;;;2.03;0.67;;;;;;;;;;5377096;26;20088;-77
2024/04/22 10:19:30;;;;;;;1.47;0.77;;;;;;;;;;5370886;26;19997;-79
2024/04/22 10:22:04;;;;;;;1.97;0.93;;;;;;;;;;5344338;26;20388;-77
2024/04/22 10:24:36;;;;;;;1.97;1.10;;;;;;;;;;5370799;26;20898;-79
2024/04/22 10:27:06;;;;;;;1.55;0.77;;;;;;;;;;5379784;26;20974;-77
2024/04/22 10:29:32;;;;;;;2.13;1.00;;;;;;;;;;5378866;26;20024;-79
2024/04/22 10:31:58;;;;;;;1.90;0.87;;;;;;;;;;5376574;26;19992;-80
2024/04/22 10:34:24;;;;;;;2.20;1.07;;;;;;;;;;5378781;26;20019;-78
2024/04/22 10:36:51;;;;;;;1.10;0.97;;;;;;;;;;5378095;26;20004;-80
2024/04/22 10:39:17;;;;;;;1.87;1.10;;;;;;;;;;5376547;26;20063;-79
2024/04/22 10:41:43;;;;;;;1.20;0.90;;;;;;;;;;5344600;26;20007;-79
2024/04/22 10:44:09;;;;;;;3.50;1.03;;;;;;;;;;5373675;26;20011;-78
2024/04/22 10:46:36;;;;;;;1.80;1.00;;;;;;;;;;5379191;26;20008;-79
2024/04/22 10:49:02;;;;;;;2.00;1.30;;;;;;;;;;5347570;26;20014;-79
2024/04/22 10:51:28;;;;;;;2.53;1.13;;;;;;;;;;5375728;26;20000;-78
2024/04/22 10:53:54;;;;;;;2.23;1.30;;;;;;;;;;5342861;26;20004;-80
2024/04/22 10:56:21;;;;;;;2.73;1.53;;;;;;;;;;5343683;26;20011;-79
2024/04/22 10:58:47;;;;;;;3.20;1.93;;;;;;;;;;5378122;26;19993;-78
2024/04/22 11:01:14;;;;;;;2.40;1.80;;;;;;;;;;5376999;26;20002;-77
2024/04/22 11:03:41;;;;;;;2.67;1.97;;;;;;;;;;5377363;26;20004;-77
2024/04/22 11:06:11;;;;;;;2.73;1.80;;;;;;;;;;5366400;26;20012;-79
2024/04/22 11:08:37;;;;;;;4.43;2.20;;;;;;;;;;5345670;26;20046;-79
2024/04/22 11:11:03;;;;;;;3.13;1.87;;;;;;;;;;5341390;26;20026;-79
2024/04/22 11:13:30;;;;;;;1.50;1.20;;;;;;;;;;5376226;26;20000;-79
2024/04/22 11:16:05;;;;;;;2.27;1.57;;;;;;;;;;5373103;26;20004;-79
2024/04/22 11:18:31;;;;;;;1.80;1.30;;;;;;;;;;5403558;26;20048;-79
2024/04/22 11:20:57;;;;;;;2.57;1.70;;;;;;;;;;5369695;26;20019;-79
2024/04/22 11:23:24;;;;;;;1.90;1.43;;;;;;;;;;5379209;26;20007;-76
2024/04/22 11:25:50;;;;;;;2.80;1.67;;;;;;;;;;5380925;26;20008;-78
2024/04/22 11:28:19;;;;;;;2.53;1.20;;;;;;;;;;5346304;26;20014;-78
2024/04/22 11:30:45;;;;;;;1.67;1.00;;;;;;;;;;5375170;26;20034;-78
2024/04/22 11:33:12;;;;;;;1.20;0.70;;;;;;;;;;5364952;26;19996;-78
2024/04/22 11:35:38;;;;;;;1.90;1.20;;;;;;;;;;5376496;26;20015;-78
2024/04/22 11:38:04;;;;;;;3.50;1.30;;;;;;;;;;5378668;26;20008;-77
2024/04/22 11:40:31;;;;;;;1.43;0.90;;;;;;;;;;5366223;26;19996;-77
2024/04/22 11:42:57;;;;;;;2.10;1.23;;;;;;;;;;5376535;26;20056;-78
2024/04/22 11:45:23;;;;;;;1.70;1.07;;;;;;;;;;5366658;26;20022;-77
2024/04/22 11:47:49;;;;;;;2.33;1.50;;;;;;;;;;5379674;26;20003;-79
2024/04/22 11:50:15;;;;;;;2.57;1.83;;;;;;;;;;5376750;26;20000;-78
2024/04/22 11:52:41;;;;;;;2.97;1.80;;;;;;;;;;5376948;26;20259;-78
2024/04/22 11:55:07;;;;;;;2.57;1.83;;;;;;;;;;5344989;26;19997;-79
2024/04/22 11:57:33;;;;;;;2.27;1.47;;;;;;;;;;5362391;26;20004;-78
2024/04/22 11:59:59;;;;;;;4.20;1.87;;;;;;;;;;5358601;26;20351;-79
2024/04/22 12:02:26;;;;;;;3.57;1.87;;;;;;;;;;5335023;26;20007;-78
2024/04/22 12:04:52;;;;;;;3.37;1.87;;;;;;;;;;5374741;26;20004;-77
2024/04/22 12:07:18;;;;;;;2.50;1.50;;;;;;;;;;5380208;26;20015;-78
2024/04/22 12:09:44;;;;;;;2.57;1.70;;;;;;;;;;5365678;26;19996;-78
2024/04/22 12:12:10;;;;;;;2.20;2.00;;;;;;;;;;5371679;26;19996;-78
2024/04/22 12:14:36;;;;;;;3.57;2.33;;;;;;;;;;5349599;26;20014;-79
2024/04/22 12:17:04;;;;;;;5.37;2.07;;;;;;;;;;5335083;26;20309;-78
2024/04/22 12:19:30;;;;;;;2.80;2.10;;;;;;;;;;5364677;26;20008;-79
2024/04/22 12:21:56;;;;;;;3.13;2.47;;;;;;;;;;5377644;26;20000;-78
2024/04/22 12:24:22;;;;;;;2.93;2.10;;;;;;;;;;5374140;26;20407;-77
2024/04/22 12:26:48;;;;;;;3.03;1.90;;;;;;;;;;5342663;26;20419;-78
2024/04/22 12:29:14;;;;;;;3.60;2.33;;;;;;;;;;5374580;26;20015;-78
2024/04/22 12:31:40;;;;;;;2.73;1.73;;;;;;;;;;5377394;26;20023;-77
2024/04/22 12:34:06;;;;;;;2.87;1.93;;;;;;;;;;5336923;26;20000;-80
2024/04/22 12:36:32;;;;;;;1.80;1.20;;;;;;;;;;5367576;26;19997;-79
2024/04/22 12:38:58;;;;;;;1.60;1.20;;;;;;;;;;5343353;26;20000;-80
2024/04/22 12:41:24;;;;;;;1.83;1.27;;;;;;;;;;5375716;26;20011;-79
2024/04/22 12:43:50;;;;;;;2.17;1.60;;;;;;;;;;5376216;26;20008;-77
2024/04/22 12:46:16;;;;;;;3.27;1.60;;;;;;;;;;5378265;26;20052;-79
2024/04/22 12:51:27;;;;;;;1.33;1.10;;;;;;;;;;5376499;26;20003;-78
2024/04/22 12:53:53;;;;;;;2.23;1.37;;;;;;;;;;5339884;26;22216;-77
2024/04/22 12:56:19;;;;;;;2.47;1.50;;;;;;;;;;5380435;26;20031;-80
2024/04/22 12:58:45;;;;;;;2.87;1.30;;;;;;;;;;5370439;26;20046;-78
2024/04/22 13:01:11;;;;;;;1.50;1.00;;;;;;;;;;5380772;26;20081;-78
2024/04/22 13:03:37;;;;;;;1.40;1.00;;;;;;;;;;5382206;26;20002;-78
2024/04/22 13:06:03;;;;;;;1.43;1.00;;;;;;;;;;5385614;26;20008;-76
2024/04/22 13:08:29;;;;;;;1.10;0.90;;;;;;;;;;5376519;26;20018;-80
2024/04/22 13:10:55;;;;;;;0.87;0.67;;;;;;;;;;5385484;26;20008;-78
2024/04/22 13:13:21;;;;;;;0.87;0.73;;;;;;;;;;5385449;26;20000;-78
2024/04/22 13:15:47;;;;;;;2.57;0.93;;;;;;;;;;5381480;26;20051;-80
2024/04/22 13:18:13;;;;;;;1.97;1.00;;;;;;;;;;5342946;26;20000;-77
2024/04/22 13:20:39;;;;;;;2.10;1.40;;;;;;;;;;5382752;26;20027;-79
2024/04/22 13:23:05;;;;;;;2.10;1.63;;;;;;;;;;5371887;26;22338;-77
2024/04/22 13:25:32;;;;;;;2.63;1.40;;;;;;;;;;5380073;26;20012;-78
2024/04/22 13:27:58;;;;;;;3.53;1.50;;;;;;;;;;5379818;26;20660;-79
2024/04/22 13:30:24;;;;;;;2.00;1.77;;;;;;;;;;5387548;26;20058;-76
2024/04/22 13:32:50;;;;;;;2.40;1.70;;;;;;;;;;5350770;26;20046;-76
2024/04/22 13:35:17;;;;;;;4.03;1.87;;;;;;;;;;5382600;26;20047;-79
2024/04/22 13:37:45;;;;;;;2.10;1.50;;;;;;;;;;5381119;26;20001;-78
2024/04/22 13:40:11;;;;;;;2.73;2.10;;;;;;;;;;5351592;26;20024;-80
2024/04/22 13:42:38;;;;;;;2.37;1.80;;;;;;;;;;5374934;26;20435;-78
2024/04/22 13:45:05;;;;;;;2.43;1.70;;;;;;;;;;5380468;26;20074;-79
2024/04/22 13:47:31;;;;;;;2.17;1.63;;;;;;;;;;5350382;26;20022;-78
2024/04/22 13:49:57;;;;;;;2.53;1.63;;;;;;;;;;5346712;26;20000;-77
2024/04/22 13:52:24;;;;;;;2.90;1.63;;;;;;;;;;5372362;26;20014;-78
2024/04/22 13:54:51;;;;;;;2.83;2.30;;;;;;;;;;5381001;26;20038;-78
2024/04/22 13:57:17;;;;;;;3.83;1.70;;;;;;;;;;5379032;26;21370;-78
2024/04/22 13:59:43;;;;;;;2.50;2.03;;;;;;;;;;5375618;26;20570;-79
2024/04/22 14:02:09;;;;;;;2.23;1.80;;;;;;;;;;5380778;26;20011;-77
2024/04/22 14:04:35;;;;;;;1.57;1.43;;;;;;;;;;5375558;26;20011;-78
2024/04/22 14:07:01;;;;;;;1.43;1.33;;;;;;;;;;5386801;26;19996;-79
2024/04/22 14:09:27;;;;;;;3.43;2.13;;;;;;;;;;5375181;26;20000;-76
2024/04/22 14:11:53;;;;;;;3.20;2.27;;;;;;;;;;5342514;26;21735;-79
2024/04/22 14:14:20;;;;;;;2.77;1.70;;;;;;;;;;5382425;26;19996;-79
2024/04/22 14:16:46;;;;;;;2.92;1.63;;;;;;;;;;5370161;26;20072;-78
2024/04/22 14:19:12;;;;;;;4.23;1.43;;;;;;;;;;5382072;26;20004;-77
2024/04/22 14:21:38;;;;;;;1.63;1.47;;;;;;;;;;5382548;26;20448;-79
2024/04/22 14:24:04;;;;;;;2.27;1.43;;;;;;;;;;5343455;26;20063;-78
2024/04/22 14:26:30;;;;;;;2.17;1.77;;;;;;;;;;5343019;26;20009;-78
2024/04/22 14:28:56;;;;;;;2.57;2.10;;;;;;;;;;5379770;26;20000;-78
2024/04/22 14:31:22;;;;;;;2.13;1.60;;;;;;;;;;5374297;26;20000;-77
2024/04/22 14:33:51;;;;;;;2.03;1.50;;;;;;;;;;5376404;26;20080;-78
2024/04/22 14:36:17;;;;;;;2.20;1.60;;;;;;;;;;5373368;26;20000;-79
2024/04/22 14:38:43;;;;;;;3.70;1.80;;;;;;;;;;5364120;26;20008;-79
2024/04/22 14:41:09;;;;;;;2.00;1.80;;;;;;;;;;5371936;26;19996;-79
2024/04/22 14:43:35;;;;;;;2.10;1.57;;;;;;;;;;5374530;26;20004;-77
2024/04/22 14:46:02;;;;;;;2.00;1.60;;;;;;;;;;5370843;26;20004;-79
2024/04/22 14:48:29;;;;;;;2.03;1.63;;;;;;;;;;5344067;26;20006;-77